Terminal Aerodrome Forecast
Issued by NWS Wakefield, VA

Home | Current Version | Previous Version | Text Only | Print | Product List | Glossary On
Versions: 1 2 3 4 5 6 7 8 9 10 11 12 13 14 15 16 17
000
FTUS41 KAKQ 220500 RRA
TAFRIC
TAF
KRIC 220548Z 2206/2306 34010KT P6SM SCT015 OVC080
      TEMPO 2206/2210 -RA OVC015
     FM221300 34013KT P6SM -RA BKN015 OVC040
     FM221700 33016G24KT P6SM OVC040
     FM230000 32013KT P6SM BKN050=

USA.gov is the U.S. government's official web portal to all federal, state and local government web resources and services.